sensor_id;sensor_type;location;lat;lon;timestamp;pressure;altitude;pressure_sealevel;temperature;humidity
61018;BME280;48171;51.550;5.434;2022-08-19T00:00:00;101346.16;;;18.58;84.23
61018;BME280;48171;51.550;5.434;2022-08-19T00:02:26;101354.50;;;18.49;83.07
61018;BME280;48171;51.550;5.434;2022-08-19T00:04:51;101344.88;;;18.42;81.81
61018;BME280;48171;51.550;5.434;2022-08-19T00:07:18;101343.34;;;18.34;83.29
61018;BME280;48171;51.550;5.434;2022-08-19T00:09:44;101340.59;;;18.36;83.55
61018;BME280;48171;51.550;5.434;2022-08-19T00:12:10;101337.38;;;18.26;81.95
61018;BME280;48171;51.550;5.434;2022-08-19T00:14:35;101342.06;;;18.18;82.20
61018;BME280;48171;51.550;5.434;2022-08-19T00:17:01;101344.75;;;18.18;82.74
61018;BME280;48171;51.550;5.434;2022-08-19T00:19:28;101341.44;;;18.10;83.83
61018;BME280;48171;51.550;5.434;2022-08-19T00:21:54;101335.34;;;18.05;82.22
61018;BME280;48171;51.550;5.434;2022-08-19T00:24:21;101338.03;;;18.03;83.20
61018;BME280;48171;51.550;5.434;2022-08-19T00:26:48;101343.44;;;18.02;82.93
61018;BME280;48171;51.550;5.434;2022-08-19T00:29:16;101339.84;;;18.03;84.50
61018;BME280;48171;51.550;5.434;2022-08-19T00:31:42;101336.25;;;18.04;84.41
61018;BME280;48171;51.550;5.434;2022-08-19T00:34:09;101343.41;;;18.03;83.11
61018;BME280;48171;51.550;5.434;2022-08-19T00:36:34;101344.34;;;18.02;83.93
61018;BME280;48171;51.550;5.434;2022-08-19T00:39:00;101345.25;;;18.01;84.60
61018;BME280;48171;51.550;5.434;2022-08-19T00:41:26;101351.47;;;18.02;84.42
61018;BME280;48171;51.550;5.434;2022-08-19T00:46:35;101348.94;;;17.97;84.82
61018;BME280;48171;51.550;5.434;2022-08-19T00:49:08;101343.59;;;17.97;83.57
61018;BME280;48171;51.550;5.434;2022-08-19T00:51:35;101344.63;;;17.91;83.29
61018;BME280;48171;51.550;5.434;2022-08-19T00:54:02;101343.75;;;17.91;83.21
61018;BME280;48171;51.550;5.434;2022-08-19T00:56:29;101345.66;;;17.87;83.25
61018;BME280;48171;51.550;5.434;2022-08-19T00:58:58;101340.28;;;17.87;83.82
61018;BME280;48171;51.550;5.434;2022-08-19T01:01:23;101350.09;;;17.88;83.87
61018;BME280;48171;51.550;5.434;2022-08-19T01:03:49;101344.78;;;17.87;83.70
61018;BME280;48171;51.550;5.434;2022-08-19T01:06:14;101340.50;;;17.79;82.83
61018;BME280;48171;51.550;5.434;2022-08-19T01:08:40;101343.22;;;17.78;83.00
61018;BME280;48171;51.550;5.434;2022-08-19T01:11:06;101345.03;;;17.77;83.60
61018;BME280;48171;51.550;5.434;2022-08-19T01:13:33;101357.50;;;17.77;83.23
61018;BME280;48171;51.550;5.434;2022-08-19T01:16:02;101355.78;;;17.74;83.79
61018;BME280;48171;51.550;5.434;2022-08-19T01:18:29;101356.84;;;17.69;82.31
61018;BME280;48171;51.550;5.434;2022-08-19T01:20:58;101350.81;;;17.62;82.48
61018;BME280;48171;51.550;5.434;2022-08-19T01:23:26;101344.59;;;17.62;83.55
61018;BME280;48171;51.550;5.434;2022-08-19T01:26:13;101340.06;;;17.64;84.49
61018;BME280;48171;51.550;5.434;2022-08-19T01:28:39;101338.28;;;17.64;85.79
61018;BME280;48171;51.550;5.434;2022-08-19T01:31:04;101343.75;;;17.59;84.37
61018;BME280;48171;51.550;5.434;2022-08-19T01:33:30;101349.16;;;17.56;83.50
61018;BME280;48171;51.550;5.434;2022-08-19T01:36:05;101343.81;;;17.56;84.16
61018;BME280;48171;51.550;5.434;2022-08-19T01:38:30;101341.38;;;17.49;84.85
61018;BME280;48171;51.550;5.434;2022-08-19T01:40:56;101343.97;;;17.52;85.23
61018;BME280;48171;51.550;5.434;2022-08-19T01:43:22;101343.13;;;17.50;84.50
61018;BME280;48171;51.550;5.434;2022-08-19T01:45:47;101344.88;;;17.51;84.98
61018;BME280;48171;51.550;5.434;2022-08-19T01:48:14;101335.31;;;17.42;83.32
61018;BME280;48171;51.550;5.434;2022-08-19T01:50:40;101331.16;;;17.32;83.41
61018;BME280;48171;51.550;5.434;2022-08-19T01:53:10;101339.22;;;17.29;85.10
61018;BME280;48171;51.550;5.434;2022-08-19T01:55:38;101333.97;;;17.27;86.08
61018;BME280;48171;51.550;5.434;2022-08-19T01:58:05;101342.00;;;17.26;87.03
61018;BME280;48171;51.550;5.434;2022-08-19T02:00:32;101341.88;;;17.30;86.82
61018;BME280;48171;51.550;5.434;2022-08-19T02:02:57;101343.81;;;17.25;84.17
61018;BME280;48171;51.550;5.434;2022-08-19T02:05:23;101340.16;;;17.28;85.24
61018;BME280;48171;51.550;5.434;2022-08-19T02:07:49;101344.50;;;17.32;86.16
61018;BME280;48171;51.550;5.434;2022-08-19T02:10:18;101346.25;;;17.33;85.20
61018;BME280;48171;51.550;5.434;2022-08-19T02:12:44;101350.75;;;17.31;84.14
61018;BME280;48171;51.550;5.434;2022-08-19T02:15:10;101349.91;;;17.29;83.95
61018;BME280;48171;51.550;5.434;2022-08-19T02:17:36;101361.56;;;17.26;84.88
61018;BME280;48171;51.550;5.434;2022-08-19T02:20:03;101366.84;;;17.29;86.13
61018;BME280;48171;51.550;5.434;2022-08-19T02:22:28;101361.44;;;17.31;86.82
61018;BME280;48171;51.550;5.434;2022-08-19T02:24:54;101357.00;;;17.31;86.50
61018;BME280;48171;51.550;5.434;2022-08-19T02:27:21;101355.22;;;17.30;86.53
61018;BME280;48171;51.550;5.434;2022-08-19T02:29:48;101361.53;;;17.28;86.36
61018;BME280;48171;51.550;5.434;2022-08-19T02:32:14;101360.66;;;17.27;86.13
61018;BME280;48171;51.550;5.434;2022-08-19T02:34:39;101365.28;;;17.20;86.51
61018;BME280;48171;51.550;5.434;2022-08-19T02:37:05;101371.41;;;17.24;86.71
61018;BME280;48171;51.550;5.434;2022-08-19T02:39:30;101371.50;;;17.21;87.01
61018;BME280;48171;51.550;5.434;2022-08-19T02:41:56;101368.78;;;17.23;86.33
61018;BME280;48171;51.550;5.434;2022-08-19T02:44:21;101364.34;;;17.23;86.77
61018;BME280;48171;51.550;5.434;2022-08-19T02:46:47;101375.03;;;17.23;86.81
61018;BME280;48171;51.550;5.434;2022-08-19T02:49:13;101376.03;;;17.19;86.62
61018;BME280;48171;51.550;5.434;2022-08-19T02:51:42;101377.75;;;17.20;86.93
61018;BME280;48171;51.550;5.434;2022-08-19T02:54:09;101386.59;;;17.22;87.58
61018;BME280;48171;51.550;5.434;2022-08-19T02:56:36;101385.63;;;17.25;87.97
61018;BME280;48171;51.550;5.434;2022-08-19T02:59:03;101382.94;;;17.26;88.06
61018;BME280;48171;51.550;5.434;2022-08-19T03:01:35;101384.63;;;17.29;88.34
61018;BME280;48171;51.550;5.434;2022-08-19T03:04:03;101381.03;;;17.31;89.35
61018;BME280;48171;51.550;5.434;2022-08-19T03:06:30;101369.38;;;17.34;88.45
61018;BME280;48171;51.550;5.434;2022-08-19T03:08:56;101374.78;;;17.31;88.27
61018;BME280;48171;51.550;5.434;2022-08-19T03:11:26;101371.38;;;17.26;88.03
61018;BME280;48171;51.550;5.434;2022-08-19T03:13:52;101371.50;;;17.21;87.37
61018;BME280;48171;51.550;5.434;2022-08-19T03:16:19;101368.03;;;17.17;87.82
61018;BME280;48171;51.550;5.434;2022-08-19T03:18:45;101371.78;;;17.10;86.56
61018;BME280;48171;51.550;5.434;2022-08-19T03:21:15;101377.09;;;17.10;87.44
61018;BME280;48171;51.550;5.434;2022-08-19T03:23:41;101382.44;;;17.10;88.85
61018;BME280;48171;51.550;5.434;2022-08-19T03:26:06;101373.69;;;17.05;86.61
61018;BME280;48171;51.550;5.434;2022-08-19T03:28:33;101378.09;;;17.06;87.85
61018;BME280;48171;51.550;5.434;2022-08-19T03:31:09;101371.00;;;17.07;88.40
61018;BME280;48171;51.550;5.434;2022-08-19T03:33:35;101364.03;;;16.99;86.57
61018;BME280;48171;51.550;5.434;2022-08-19T03:36:13;101368.44;;;17.00;86.76
61018;BME280;48171;51.550;5.434;2022-08-19T03:38:42;101367.63;;;16.98;88.14
61018;BME280;48171;51.550;5.434;2022-08-19T03:41:12;101371.09;;;17.02;88.33
61018;BME280;48171;51.550;5.434;2022-08-19T03:43:39;101360.56;;;16.96;86.28
61018;BME280;48171;51.550;5.434;2022-08-19T03:46:10;101354.50;;;16.89;86.07
61018;BME280;48171;51.550;5.434;2022-08-19T03:48:37;101356.53;;;16.78;86.33
61018;BME280;48171;51.550;5.434;2022-08-19T03:51:03;101358.31;;;16.79;87.80
61018;BME280;48171;51.550;5.434;2022-08-19T03:53:29;101363.53;;;16.84;88.87
61018;BME280;48171;51.550;5.434;2022-08-19T03:55:56;101359.06;;;16.84;89.36
61018;BME280;48171;51.550;5.434;2022-08-19T03:58:23;101352.84;;;16.85;89.43
61018;BME280;48171;51.550;5.434;2022-08-19T04:00:48;101358.09;;;16.88;89.06
61018;BME280;48171;51.550;5.434;2022-08-19T04:03:14;101364.34;;;16.87;88.22
61018;BME280;48171;51.550;5.434;2022-08-19T04:05:40;101362.56;;;16.88;88.54
61018;BME280;48171;51.550;5.434;2022-08-19T04:08:05;101363.41;;;16.90;88.33
61018;BME280;48171;51.550;5.434;2022-08-19T04:10:35;101365.22;;;16.88;88.15
61018;BME280;48171;51.550;5.434;2022-08-19T04:13:00;101355.41;;;16.88;88.92
61018;BME280;48171;51.550;5.434;2022-08-19T04:15:26;101358.06;;;16.90;89.06
61018;BME280;48171;51.550;5.434;2022-08-19T04:17:52;101353.66;;;16.89;88.92
61018;BME280;48171;51.550;5.434;2022-08-19T04:20:18;101359.06;;;16.86;89.05
61018;BME280;48171;51.550;5.434;2022-08-19T04:22:43;101367.16;;;16.83;86.64
61018;BME280;48171;51.550;5.434;2022-08-19T04:25:09;101360.03;;;16.80;87.87
61018;BME280;48171;51.550;5.434;2022-08-19T04:27:34;101353.84;;;16.79;88.75
61018;BME280;48171;51.550;5.434;2022-08-19T04:29:59;101352.94;;;16.80;88.85
61018;BME280;48171;51.550;5.434;2022-08-19T04:32:25;101356.50;;;16.79;88.99
61018;BME280;48171;51.550;5.434;2022-08-19T04:34:50;101355.59;;;16.80;88.97
61018;BME280;48171;51.550;5.434;2022-08-19T04:37:15;101349.38;;;16.82;88.87
61018;BME280;48171;51.550;5.434;2022-08-19T04:39:40;101357.38;;;16.82;89.07
61018;BME280;48171;51.550;5.434;2022-08-19T04:42:24;101355.63;;;16.79;88.70
61018;BME280;48171;51.550;5.434;2022-08-19T04:45:08;101354.81;;;16.75;88.65
61018;BME280;48171;51.550;5.434;2022-08-19T04:47:36;101354.81;;;16.75;88.00
61018;BME280;48171;51.550;5.434;2022-08-19T04:50:02;101363.75;;;16.74;88.25
61018;BME280;48171;51.550;5.434;2022-08-19T04:52:28;101357.56;;;16.72;88.18
61018;BME280;48171;51.550;5.434;2022-08-19T04:54:56;101361.31;;;16.64;85.58
61018;BME280;48171;51.550;5.434;2022-08-19T04:57:21;101372.09;;;16.60;86.42
61018;BME280;48171;51.550;5.434;2022-08-19T04:59:46;101369.41;;;16.60;88.12
61018;BME280;48171;51.550;5.434;2022-08-19T05:02:12;101373.84;;;16.60;87.98
61018;BME280;48171;51.550;5.434;2022-08-19T05:04:37;101376.63;;;16.55;86.58
61018;BME280;48171;51.550;5.434;2022-08-19T05:07:05;101378.50;;;16.52;87.20
61018;BME280;48171;51.550;5.434;2022-08-19T05:09:30;101387.34;;;16.54;88.08
61018;BME280;48171;51.550;5.434;2022-08-19T05:11:55;101381.13;;;16.53;86.42
61018;BME280;48171;51.550;5.434;2022-08-19T05:14:20;101382.84;;;16.56;87.75
61018;BME280;48171;51.550;5.434;2022-08-19T05:16:46;101385.47;;;16.57;88.16
61018;BME280;48171;51.550;5.434;2022-08-19T05:19:12;101382.81;;;16.57;87.58
61018;BME280;48171;51.550;5.434;2022-08-19T05:21:56;101388.97;;;16.61;87.61
61018;BME280;48171;51.550;5.434;2022-08-19T05:24:40;101404.03;;;16.62;87.75
61018;BME280;48171;51.550;5.434;2022-08-19T05:27:05;101404.03;;;16.62;87.87
61018;BME280;48171;51.550;5.434;2022-08-19T05:29:32;101408.47;;;16.65;87.82
61018;BME280;48171;51.550;5.434;2022-08-19T05:31:59;101412.88;;;16.66;88.25
61018;BME280;48171;51.550;5.434;2022-08-19T05:34:25;101415.47;;;16.69;88.05
61018;BME280;48171;51.550;5.434;2022-08-19T05:36:54;101418.97;;;16.71;88.39
61018;BME280;48171;51.550;5.434;2022-08-19T05:39:27;101424.22;;;16.74;88.65
61018;BME280;48171;51.550;5.434;2022-08-19T05:41:54;101426.59;;;16.89;87.48
61018;BME280;48171;51.550;5.434;2022-08-19T05:44:22;101430.25;;;16.85;89.36
61018;BME280;48171;51.550;5.434;2022-08-19T05:46:48;101419.59;;;16.84;89.73
61018;BME280;48171;51.550;5.434;2022-08-19T05:49:14;101420.44;;;16.86;90.35
61018;BME280;48171;51.550;5.434;2022-08-19T05:51:41;101424.81;;;16.88;90.56
61018;BME280;48171;51.550;5.434;2022-08-19T05:54:08;101420.31;;;16.90;91.47
61018;BME280;48171;51.550;5.434;2022-08-19T05:56:34;101429.09;;;16.95;92.07
61018;BME280;48171;51.550;5.434;2022-08-19T05:59:04;101426.25;;;17.03;92.14
61018;BME280;48171;51.550;5.434;2022-08-19T06:01:33;101413.75;;;17.05;92.42
61018;BME280;48171;51.550;5.434;2022-08-19T06:03:59;101409.28;;;17.06;92.84
61018;BME280;48171;51.550;5.434;2022-08-19T06:06:24;101412.75;;;17.09;93.08
61018;BME280;48171;51.550;5.434;2022-08-19T06:08:50;101409.16;;;17.10;93.18
61018;BME280;48171;51.550;5.434;2022-08-19T06:11:23;101412.72;;;17.11;93.05
61018;BME280;48171;51.550;5.434;2022-08-19T06:13:52;101406.44;;;17.12;93.30
61018;BME280;48171;51.550;5.434;2022-08-19T06:16:21;101403.72;;;17.15;93.43
61018;BME280;48171;51.550;5.434;2022-08-19T06:18:51;101398.31;;;17.16;93.82
61018;BME280;48171;51.550;5.434;2022-08-19T06:21:21;101400.09;;;17.17;94.34
61018;BME280;48171;51.550;5.434;2022-08-19T06:23:48;101400.06;;;17.19;94.08
61018;BME280;48171;51.550;5.434;2022-08-19T06:26:17;101400.00;;;17.20;94.53
61018;BME280;48171;51.550;5.434;2022-08-19T06:28:43;101401.72;;;17.23;93.76
61018;BME280;48171;51.550;5.434;2022-08-19T06:31:15;101404.41;;;17.23;94.11
61018;BME280;48171;51.550;5.434;2022-08-19T06:33:42;101405.22;;;17.25;94.15
61018;BME280;48171;51.550;5.434;2022-08-19T06:36:25;101404.28;;;17.28;94.09
61018;BME280;48171;51.550;5.434;2022-08-19T06:39:00;101398.91;;;17.29;94.31
61018;BME280;48171;51.550;5.434;2022-08-19T06:41:27;101404.16;;;17.31;94.81
61018;BME280;48171;51.550;5.434;2022-08-19T06:43:54;101405.94;;;17.32;95.12
61018;BME280;48171;51.550;5.434;2022-08-19T06:46:20;101404.94;;;17.36;94.87
61018;BME280;48171;51.550;5.434;2022-08-19T06:48:46;101413.78;;;17.38;95.16
61018;BME280;48171;51.550;5.434;2022-08-19T06:51:15;101407.53;;;17.39;95.25
61018;BME280;48171;51.550;5.434;2022-08-19T06:53:42;101404.81;;;17.40;95.41
61018;BME280;48171;51.550;5.434;2022-08-19T06:56:16;101411.81;;;17.45;95.44
61018;BME280;48171;51.550;5.434;2022-08-19T06:58:42;101407.38;;;17.45;95.54
61018;BME280;48171;51.550;5.434;2022-08-19T07:01:08;101410.91;;;17.47;95.44
61018;BME280;48171;51.550;5.434;2022-08-19T07:03:35;101409.97;;;17.48;95.85
61018;BME280;48171;51.550;5.434;2022-08-19T07:06:09;101409.91;;;17.51;96.47
61018;BME280;48171;51.550;5.434;2022-08-19T07:08:34;101409.72;;;17.57;96.60
61018;BME280;48171;51.550;5.434;2022-08-19T07:11:05;101414.84;;;17.65;97.35
61018;BME280;48171;51.550;5.434;2022-08-19T07:13:30;101403.94;;;17.73;96.50
61018;BME280;48171;51.550;5.434;2022-08-19T07:15:57;101414.53;;;17.77;96.46
61018;BME280;48171;51.550;5.434;2022-08-19T07:18:22;101410.75;;;17.86;96.71
61018;BME280;48171;51.550;5.434;2022-08-19T07:20:48;101422.94;;;17.96;96.45
61018;BME280;48171;51.550;5.434;2022-08-19T07:23:13;101424.41;;;18.07;95.78
61018;BME280;48171;51.550;5.434;2022-08-19T07:25:39;101431.28;;;18.15;95.90
61018;BME280;48171;51.550;5.434;2022-08-19T07:28:04;101437.34;;;18.22;95.20
61018;BME280;48171;51.550;5.434;2022-08-19T07:30:30;101433.66;;;18.26;95.36
61018;BME280;48171;51.550;5.434;2022-08-19T07:32:56;101434.34;;;18.33;95.07
61018;BME280;48171;51.550;5.434;2022-08-19T07:35:22;101427.00;;;18.39;94.53
61018;BME280;48171;51.550;5.434;2022-08-19T07:37:49;101420.56;;;18.47;94.80
61018;BME280;48171;51.550;5.434;2022-08-19T07:40:14;101426.59;;;18.53;94.79
61018;BME280;48171;51.550;5.434;2022-08-19T07:42:39;101438.91;;;18.59;93.99
61018;BME280;48171;51.550;5.434;2022-08-19T07:45:05;101437.91;;;18.63;94.76
61018;BME280;48171;51.550;5.434;2022-08-19T07:47:31;101445.78;;;18.68;93.88
61018;BME280;48171;51.550;5.434;2022-08-19T07:49:56;101451.91;;;18.71;93.61
61018;BME280;48171;51.550;5.434;2022-08-19T07:52:22;101452.69;;;18.75;93.85
61018;BME280;48171;51.550;5.434;2022-08-19T07:54:48;101457.06;;;18.79;94.51
61018;BME280;48171;51.550;5.434;2022-08-19T07:57:14;101462.25;;;18.84;94.72
61018;BME280;48171;51.550;5.434;2022-08-19T07:59:40;101467.38;;;18.91;93.55
61018;BME280;48171;51.550;5.434;2022-08-19T08:02:05;101469.09;;;18.94;93.03
61018;BME280;48171;51.550;5.434;2022-08-19T08:04:31;101461.88;;;18.96;93.02
61018;BME280;48171;51.550;5.434;2022-08-19T08:07:15;101459.19;;;18.96;92.28
61018;BME280;48171;51.550;5.434;2022-08-19T08:10:00;101466.31;;;18.97;92.70
61018;BME280;48171;51.550;5.434;2022-08-19T08:12:29;101468.00;;;18.99;92.54
61018;BME280;48171;51.550;5.434;2022-08-19T08:14:57;101462.53;;;19.03;92.77
61018;BME280;48171;51.550;5.434;2022-08-19T08:17:25;101470.50;;;19.06;93.86
61018;BME280;48171;51.550;5.434;2022-08-19T08:19:51;101466.00;;;19.06;93.22
61018;BME280;48171;51.550;5.434;2022-08-19T08:22:20;101467.84;;;19.04;92.45
61018;BME280;48171;51.550;5.434;2022-08-19T08:25:07;101468.78;;;19.03;92.13
61018;BME280;48171;51.550;5.434;2022-08-19T08:27:41;101476.69;;;19.08;92.29
61018;BME280;48171;51.550;5.434;2022-08-19T08:30:08;101480.22;;;19.08;91.69
61018;BME280;48171;51.550;5.434;2022-08-19T08:32:36;101485.50;;;19.11;92.33
61018;BME280;48171;51.550;5.434;2022-08-19T08:35:06;101484.50;;;19.14;91.84
61018;BME280;48171;51.550;5.434;2022-08-19T08:37:32;101484.44;;;19.17;91.81
61018;BME280;48171;51.550;5.434;2022-08-19T08:39:58;101487.94;;;19.19;91.09
61018;BME280;48171;51.550;5.434;2022-08-19T08:42:34;101495.03;;;19.20;91.37
61018;BME280;48171;51.550;5.434;2022-08-19T08:45:12;101497.50;;;19.26;91.40
61018;BME280;48171;51.550;5.434;2022-08-19T08:47:41;101498.16;;;19.33;91.20
61018;BME280;48171;51.550;5.434;2022-08-19T08:50:15;101504.03;;;19.46;91.39
61018;BME280;48171;51.550;5.434;2022-08-19T08:52:49;101502.78;;;19.56;90.24
61018;BME280;48171;51.550;5.434;2022-08-19T08:55:20;101498.94;;;19.63;91.08
61018;BME280;48171;51.550;5.434;2022-08-19T09:00:15;101497.16;;;19.64;89.61
61018;BME280;48171;51.550;5.434;2022-08-19T09:02:43;101491.78;;;19.64;89.63
61018;BME280;48171;51.550;5.434;2022-08-19T09:05:10;101492.63;;;19.66;89.19
61018;BME280;48171;51.550;5.434;2022-08-19T09:10:37;101486.13;;;19.73;88.65
61018;BME280;48171;51.550;5.434;2022-08-19T09:16:08;101489.31;;;19.84;88.20
61018;BME280;48171;51.550;5.434;2022-08-19T09:18:50;101490.78;;;19.93;88.65
61018;BME280;48171;51.550;5.434;2022-08-19T09:21:18;101492.38;;;19.98;87.55
61018;BME280;48171;51.550;5.434;2022-08-19T09:23:44;101495.94;;;19.99;88.36
61018;BME280;48171;51.550;5.434;2022-08-19T09:26:11;101502.28;;;19.96;87.92
61018;BME280;48171;51.550;5.434;2022-08-19T09:28:41;101501.56;;;19.91;87.41
61018;BME280;48171;51.550;5.434;2022-08-19T09:31:11;101509.63;;;19.91;88.18
61018;BME280;48171;51.550;5.434;2022-08-19T09:33:37;101504.38;;;19.88;88.76
61018;BME280;48171;51.550;5.434;2022-08-19T09:36:08;101502.69;;;19.86;88.62
61018;BME280;48171;51.550;5.434;2022-08-19T09:38:35;101511.44;;;19.91;88.47
61018;BME280;48171;51.550;5.434;2022-08-19T09:41:05;101511.25;;;19.95;88.24
61018;BME280;48171;51.550;5.434;2022-08-19T09:43:31;101509.91;;;20.09;87.95
61018;BME280;48171;51.550;5.434;2022-08-19T09:45:57;101503.50;;;20.13;86.87
61018;BME280;48171;51.550;5.434;2022-08-19T09:48:22;101498.84;;;20.18;86.32
61018;BME280;48171;51.550;5.434;2022-08-19T09:50:48;101508.59;;;20.21;86.09
61018;BME280;48171;51.550;5.434;2022-08-19T09:53:14;101507.59;;;20.23;86.24
61018;BME280;48171;51.550;5.434;2022-08-19T09:55:43;101513.72;;;20.27;86.19
61018;BME280;48171;51.550;5.434;2022-08-19T09:58:09;101513.72;;;20.27;85.37
61018;BME280;48171;51.550;5.434;2022-08-19T10:00:34;101504.03;;;20.23;85.29
61018;BME280;48171;51.550;5.434;2022-08-19T10:03:01;101516.63;;;20.21;85.54
61018;BME280;48171;51.550;5.434;2022-08-19T10:05:27;101524.56;;;20.24;85.47
61018;BME280;48171;51.550;5.434;2022-08-19T10:08:11;101519.09;;;20.27;84.82
61018;BME280;48171;51.550;5.434;2022-08-19T10:10:37;101511.22;;;20.22;85.72
61018;BME280;48171;51.550;5.434;2022-08-19T10:13:02;101518.22;;;20.26;86.36
61018;BME280;48171;51.550;5.434;2022-08-19T10:15:29;101524.41;;;20.28;86.31
61018;BME280;48171;51.550;5.434;2022-08-19T10:17:54;101512.69;;;20.31;86.66
61018;BME280;48171;51.550;5.434;2022-08-19T10:20:19;101509.72;;;20.38;86.42
61018;BME280;48171;51.550;5.434;2022-08-19T10:22:45;101504.88;;;20.48;85.62
61018;BME280;48171;51.550;5.434;2022-08-19T10:25:10;101504.50;;;20.59;85.31
61018;BME280;48171;51.550;5.434;2022-08-19T10:27:37;101503.41;;;20.65;85.10
61018;BME280;48171;51.550;5.434;2022-08-19T10:30:03;101504.97;;;20.70;85.19
61018;BME280;48171;51.550;5.434;2022-08-19T10:32:29;101508.56;;;20.69;83.56
61018;BME280;48171;51.550;5.434;2022-08-19T10:34:55;101507.66;;;20.70;83.63
61018;BME280;48171;51.550;5.434;2022-08-19T10:37:21;101503.16;;;20.71;83.35
61018;BME280;48171;51.550;5.434;2022-08-19T10:39:46;101503.97;;;20.73;84.65
61018;BME280;48171;51.550;5.434;2022-08-19T10:42:13;101505.69;;;20.74;84.67
61018;BME280;48171;51.550;5.434;2022-08-19T10:44:39;101502.09;;;20.75;83.38
61018;BME280;48171;51.550;5.434;2022-08-19T10:47:04;101507.41;;;20.76;82.52
61018;BME280;48171;51.550;5.434;2022-08-19T10:49:30;101507.34;;;20.78;82.22
61018;BME280;48171;51.550;5.434;2022-08-19T10:51:57;101494.63;;;20.83;82.03
61018;BME280;48171;51.550;5.434;2022-08-19T10:54:41;101498.63;;;20.95;81.69
61018;BME280;48171;51.550;5.434;2022-08-19T10:57:25;101492.81;;;21.06;82.34
61018;BME280;48171;51.550;5.434;2022-08-19T10:59:55;101495.06;;;21.16;81.48
61018;BME280;48171;51.550;5.434;2022-08-19T11:02:20;101486.56;;;21.27;80.54
61018;BME280;48171;51.550;5.434;2022-08-19T11:04:46;101495.34;;;21.31;79.80
61018;BME280;48171;51.550;5.434;2022-08-19T11:07:12;101493.56;;;21.31;80.01
61018;BME280;48171;51.550;5.434;2022-08-19T11:09:40;101497.88;;;21.35;80.25
61018;BME280;48171;51.550;5.434;2022-08-19T11:12:06;101495.13;;;21.37;80.13
61018;BME280;48171;51.550;5.434;2022-08-19T11:14:33;101493.38;;;21.36;80.69
61018;BME280;48171;51.550;5.434;2022-08-19T11:16:59;101490.72;;;21.34;79.38
61018;BME280;48171;51.550;5.434;2022-08-19T11:19:24;101490.69;;;21.36;79.44
61018;BME280;48171;51.550;5.434;2022-08-19T11:21:51;101491.44;;;21.40;80.01
61018;BME280;48171;51.550;5.434;2022-08-19T11:24:25;101497.44;;;21.46;81.10
61018;BME280;48171;51.550;5.434;2022-08-19T11:26:52;101501.63;;;21.53;81.47
61018;BME280;48171;51.550;5.434;2022-08-19T11:29:20;101496.06;;;21.58;80.19
61018;BME280;48171;51.550;5.434;2022-08-19T11:31:48;101489.81;;;21.57;79.48
61018;BME280;48171;51.550;5.434;2022-08-19T11:34:20;101485.97;;;21.63;80.84
61018;BME280;48171;51.550;5.434;2022-08-19T11:36:47;101482.28;;;21.66;79.63
61018;BME280;48171;51.550;5.434;2022-08-19T11:39:16;101479.13;;;21.76;80.56
61018;BME280;48171;51.550;5.434;2022-08-19T11:41:41;101474.28;;;21.85;79.67
61018;BME280;48171;51.550;5.434;2022-08-19T11:44:07;101468.16;;;22.02;78.62
61018;BME280;48171;51.550;5.434;2022-08-19T11:46:33;101468.41;;;22.16;78.17
61018;BME280;48171;51.550;5.434;2022-08-19T11:48:59;101469.66;;;22.28;78.90
61018;BME280;48171;51.550;5.434;2022-08-19T11:51:27;101475.84;;;22.30;75.11
61018;BME280;48171;51.550;5.434;2022-08-19T11:53:57;101481.13;;;22.33;74.74
61018;BME280;48171;51.550;5.434;2022-08-19T11:56:24;101477.56;;;22.32;73.67
61018;BME280;48171;51.550;5.434;2022-08-19T11:58:51;101475.59;;;22.36;73.76
61018;BME280;48171;51.550;5.434;2022-08-19T12:01:19;101470.41;;;22.31;73.97
61018;BME280;48171;51.550;5.434;2022-08-19T12:03:46;101472.28;;;22.29;74.36
61018;BME280;48171;51.550;5.434;2022-08-19T12:06:17;101466.97;;;22.28;74.89
61018;BME280;48171;51.550;5.434;2022-08-19T12:08:43;101474.81;;;22.34;76.97
61018;BME280;48171;51.550;5.434;2022-08-19T12:11:10;101482.72;;;22.37;75.89
61018;BME280;48171;51.550;5.434;2022-08-19T12:13:36;101486.16;;;22.41;75.94
61018;BME280;48171;51.550;5.434;2022-08-19T12:16:10;101483.53;;;22.39;75.71
61018;BME280;48171;51.550;5.434;2022-08-19T12:18:38;101486.97;;;22.43;75.10
61018;BME280;48171;51.550;5.434;2022-08-19T12:21:06;101484.09;;;22.46;74.69
61018;BME280;48171;51.550;5.434;2022-08-19T12:23:31;101476.63;;;22.52;76.04
61018;BME280;48171;51.550;5.434;2022-08-19T12:25:56;101474.44;;;22.61;77.59
61018;BME280;48171;51.550;5.434;2022-08-19T12:28:23;101480.53;;;22.64;76.60
61018;BME280;48171;51.550;5.434;2022-08-19T12:30:49;101476.13;;;22.63;75.11
61018;BME280;48171;51.550;5.434;2022-08-19T12:33:19;101474.50;;;22.59;76.47
61018;BME280;48171;51.550;5.434;2022-08-19T12:35:48;101468.25;;;22.59;77.21
61018;BME280;48171;51.550;5.434;2022-08-19T12:38:13;101462.13;;;22.55;75.82
61018;BME280;48171;51.550;5.434;2022-08-19T12:40:40;101463.88;;;22.56;76.61
61018;BME280;48171;51.550;5.434;2022-08-19T12:43:06;101466.44;;;22.59;76.34
61018;BME280;48171;51.550;5.434;2022-08-19T12:45:32;101455.44;;;22.64;76.15
61018;BME280;48171;51.550;5.434;2022-08-19T12:47:57;101463.22;;;22.70;77.25
61018;BME280;48171;51.550;5.434;2022-08-19T12:50:23;101459.44;;;22.74;77.58
61018;BME280;48171;51.550;5.434;2022-08-19T12:52:48;101459.00;;;22.83;76.85
61018;BME280;48171;51.550;5.434;2022-08-19T12:55:14;101450.75;;;22.86;75.38
61018;BME280;48171;51.550;5.434;2022-08-19T12:57:40;101453.44;;;22.86;75.49
61018;BME280;48171;51.550;5.434;2022-08-19T13:00:09;101450.19;;;22.80;75.60
61018;BME280;48171;51.550;5.434;2022-08-19T13:02:36;101454.19;;;22.71;75.01